createdAt,value
2019-05-13T00:01:45.740Z,99696.29
2019-05-13T00:04:15.914Z,99695.48
2019-05-13T00:06:53.591Z,99690.33
2019-05-13T00:09:17.945Z,99690.19
2019-05-13T00:11:48.332Z,99696.14
2019-05-13T00:14:18.555Z,99688.14
2019-05-13T00:16:48.762Z,99695.70
2019-05-13T00:19:19.057Z,99690.80
2019-05-13T00:21:49.307Z,99688.70
2019-05-13T00:24:19.428Z,99692.45
2019-05-13T00:26:49.596Z,99684.92
2019-05-13T00:29:19.865Z,99685.31
2019-05-13T00:31:50.125Z,99690.88
2019-05-13T00:34:21.159Z,99693.23
2019-05-13T00:37:07.351Z,99687.28
2019-05-13T00:39:24.579Z,99687.75
2019-05-13T00:41:55.258Z,99686.11
2019-05-13T00:44:25.698Z,99675.09
2019-05-13T00:46:55.945Z,99682.32
2019-05-13T00:49:26.164Z,99687.83
2019-05-13T00:51:56.477Z,99687.75
2019-05-13T00:54:26.750Z,99686.88
2019-05-13T00:56:56.860Z,99689.23
2019-05-13T00:59:27.076Z,99679.33
2019-05-13T01:01:57.222Z,99678.34
2019-05-13T01:04:27.413Z,99679.83
2019-05-13T01:06:57.571Z,99675.23
2019-05-13T01:09:27.707Z,99669.17
2019-05-13T01:11:58.102Z,99670.34
2019-05-13T01:14:28.365Z,99667.09
2019-05-13T01:16:58.486Z,99666.84
2019-05-13T01:19:28.743Z,99666.89
2019-05-13T01:21:58.888Z,99662.20
2019-05-13T01:24:29.036Z,99656.63
2019-05-13T01:26:59.819Z,99660.06
2019-05-13T01:29:30.231Z,99663.09
2019-05-13T01:32:00.569Z,99661.98
2019-05-13T01:34:30.807Z,99663.31
2019-05-13T01:37:01.011Z,99666.78
2019-05-13T01:39:31.281Z,99667.70
2019-05-13T01:42:03.648Z,99668.34
2019-05-13T01:44:33.793Z,99668.30
2019-05-13T01:47:04.670Z,99667.82
2019-05-13T01:49:35.532Z,99673.17
2019-05-13T01:52:05.774Z,99673.62
2019-05-13T01:54:36.132Z,99672.19
2019-05-13T01:57:06.571Z,99673.05
2019-05-13T01:59:36.787Z,99681.67
2019-05-13T02:02:07.058Z,99683.45
2019-05-13T02:04:37.762Z,99690.67
2019-05-13T02:07:14.495Z,99688.25
2019-05-13T02:09:45.133Z,99692.91
2019-05-13T02:12:15.556Z,99694.57
2019-05-13T02:14:45.773Z,99689.55
2019-05-13T02:17:16.124Z,99693.54
2019-05-13T02:19:46.697Z,99697.97
2019-05-13T02:22:17.041Z,99693.23
2019-05-13T02:24:47.373Z,99695.01
2019-05-13T02:27:17.533Z,99701.80
2019-05-13T02:29:47.670Z,99698.02
2019-05-13T02:32:17.867Z,99705.80
2019-05-13T02:34:48.056Z,99703.15
2019-05-13T02:37:18.254Z,99708.82
2019-05-13T02:39:48.392Z,99708.61
2019-05-13T02:42:18.697Z,99714.98
2019-05-13T02:44:48.803Z,99710.27
2019-05-13T02:47:22.394Z,99715.30
2019-05-13T02:49:53.305Z,99710.38
2019-05-13T02:52:23.261Z,99704.83
2019-05-13T02:54:53.444Z,99703.89
2019-05-13T02:57:23.906Z,99711.00
2019-05-13T02:59:54.020Z,99707.90
2019-05-13T03:02:24.417Z,99710.56
2019-05-13T03:04:54.526Z,99709.45
2019-05-13T03:07:24.829Z,99710.89
2019-05-13T03:09:54.991Z,99712.45
2019-05-13T03:12:25.621Z,99709.05
2019-05-13T03:14:56.015Z,99714.58
2019-05-13T03:17:38.670Z,99717.46
2019-05-13T03:20:15.402Z,99719.30
2019-05-13T03:22:43.355Z,99718.38
2019-05-13T03:25:13.833Z,99720.10
2019-05-13T03:27:44.294Z,99721.55
2019-05-13T03:30:16.997Z,99723.99
2019-05-13T03:32:55.215Z,99727.08
2019-05-13T03:35:25.752Z,99731.09
2019-05-13T03:37:52.753Z,99729.11
2019-05-13T03:40:23.578Z,99725.54
2019-05-13T03:42:56.166Z,99724.92
2019-05-13T03:45:26.496Z,99724.82
2019-05-13T03:47:57.819Z,99726.36
2019-05-13T03:50:33.524Z,99729.54
2019-05-13T03:53:03.113Z,99720.92
2019-05-13T03:55:33.225Z,99728.70
2019-05-13T03:58:04.509Z,99731.27
2019-05-13T04:00:34.942Z,99731.99
2019-05-13T04:03:23.093Z,99726.87
2019-05-13T04:05:54.018Z,99734.66
2019-05-13T04:08:24.220Z,99734.15
2019-05-13T04:10:54.771Z,99742.37
2019-05-13T04:13:25.182Z,99746.36
2019-05-13T04:15:55.343Z,99749.55
2019-05-13T04:18:25.542Z,99753.84
2019-05-13T04:20:56.064Z,99756.34
2019-05-13T04:23:26.460Z,99759.75
2019-05-13T04:25:57.135Z,99761.99
2019-05-13T04:28:27.535Z,99760.88
2019-05-13T04:30:57.794Z,99768.17
2019-05-13T04:33:28.144Z,99768.40
2019-05-13T04:35:58.730Z,99766.95
2019-05-13T04:38:28.960Z,99769.83
2019-05-13T04:40:59.467Z,99771.24
2019-05-13T04:43:31.651Z,99768.64
2019-05-13T04:46:02.646Z,99769.80
2019-05-13T04:48:33.915Z,99775.52
2019-05-13T04:51:05.088Z,99769.55
2019-05-13T04:53:37.442Z,99776.14
2019-05-13T04:56:14.421Z,99769.39
2019-05-13T04:58:44.692Z,99772.50
2019-05-13T05:02:14.149Z,99764.74
2019-05-13T05:04:56.440Z,99769.31
2019-05-13T05:08:22.392Z,99762.55
2019-05-13T05:11:31.910Z,99759.36
2019-05-13T05:14:28.398Z,99764.63
2019-05-13T05:17:52.179Z,99764.33
2019-05-13T05:20:34.377Z,99766.02
2019-05-13T05:23:25.750Z,99770.50
2019-05-13T05:26:16.112Z,99768.53
2019-05-13T05:29:02.128Z,99775.09
2019-05-13T05:31:48.113Z,99772.48
2019-05-13T05:34:55.486Z,99777.03
2019-05-13T05:38:28.040Z,99769.35
2019-05-13T05:41:01.700Z,99779.51
2019-05-13T05:43:32.784Z,99779.36
2019-05-13T05:46:04.246Z,99780.94
2019-05-13T05:48:36.168Z,99779.03
2019-05-13T05:51:06.863Z,99786.53
2019-05-13T05:53:38.314Z,99776.16
2019-05-13T05:56:11.314Z,99782.28
2019-05-13T05:58:41.997Z,99784.22
2019-05-13T06:01:14.444Z,99782.80
2019-05-13T06:03:45.703Z,99788.16
2019-05-13T06:06:16.269Z,99793.58
2019-05-13T06:08:46.379Z,99783.28
2019-05-13T06:11:17.520Z,99775.67
2019-05-13T06:13:52.110Z,99785.73
2019-05-13T06:16:21.823Z,99777.74
2019-05-13T06:18:52.379Z,99776.61
2019-05-13T06:21:22.845Z,99775.58
2019-05-13T06:23:53.336Z,99769.78
2019-05-13T06:26:23.918Z,99776.47
2019-05-13T06:28:55.376Z,99766.39
2019-05-13T06:31:25.548Z,99765.18
2019-05-13T06:33:55.738Z,99762.16
2019-05-13T06:36:27.826Z,99755.52
2019-05-13T06:38:58.029Z,99766.63
2019-05-13T06:41:28.375Z,99766.55
2019-05-13T06:43:58.910Z,99769.12
2019-05-13T06:46:29.168Z,99773.46
2019-05-13T06:48:59.760Z,99764.64
2019-05-13T06:51:31.439Z,99760.27
2019-05-13T06:54:03.313Z,99752.51
2019-05-13T06:56:34.828Z,99760.32
2019-05-13T06:59:05.087Z,99751.42
2019-05-13T07:01:35.722Z,99754.66
2019-05-13T07:04:06.011Z,99759.50
2019-05-13T07:06:36.426Z,99755.26
2019-05-13T07:09:07.735Z,99757.69
2019-05-13T07:11:38.294Z,99756.64
2019-05-13T07:14:12.703Z,99748.84
2019-05-13T07:16:45.372Z,99753.77
2019-05-13T07:19:17.176Z,99756.97
2019-05-13T07:21:48.315Z,99763.03
2019-05-13T07:24:21.265Z,99759.75
2019-05-13T07:26:52.539Z,99759.58
2019-05-13T07:29:24.298Z,99743.19
2019-05-13T07:31:56.918Z,99749.20
2019-05-13T07:34:27.339Z,99750.69
2019-05-13T07:37:01.860Z,99752.94
2019-05-13T07:39:32.660Z,99748.39
2019-05-13T07:42:05.864Z,99754.03
2019-05-13T07:44:35.893Z,99757.59
2019-05-13T07:47:06.655Z,99759.97
2019-05-13T07:49:37.148Z,99753.39
2019-05-13T07:52:07.566Z,99756.78
2019-05-13T07:54:38.268Z,99764.89
2019-05-13T07:57:09.130Z,99758.63
2019-05-13T07:59:41.912Z,99760.61
2019-05-13T08:02:12.565Z,99758.97
2019-05-13T08:04:43.195Z,99757.89
2019-05-13T08:07:13.846Z,99753.98
2019-05-13T08:09:45.615Z,99751.17
2019-05-13T08:12:16.331Z,99742.18
2019-05-13T08:14:47.154Z,99737.27
2019-05-13T08:17:18.003Z,99739.30
2019-05-13T08:19:48.354Z,99736.71
2019-05-13T08:22:21.854Z,99741.36
2019-05-13T08:24:54.362Z,99728.52
2019-05-13T08:27:30.259Z,99734.55
2019-05-13T08:29:58.243Z,99729.27
2019-05-13T08:32:31.258Z,99732.41
2019-05-13T08:35:08.759Z,99725.08
2019-05-13T08:37:33.933Z,99731.70
2019-05-13T08:40:04.670Z,99731.88
2019-05-13T08:42:35.570Z,99733.36
2019-05-13T08:45:06.785Z,99736.00
2019-05-13T08:47:37.540Z,99727.05
2019-05-13T08:50:08.744Z,99725.92
2019-05-13T08:52:42.011Z,99725.69
2019-05-13T08:55:15.856Z,99713.91
2019-05-13T08:57:44.510Z,99720.59
2019-05-13T09:00:21.467Z,99718.39
2019-05-13T09:02:52.295Z,99729.67
2019-05-13T09:05:23.113Z,99728.98
2019-05-13T09:07:53.679Z,99724.67
2019-05-13T09:10:24.342Z,99718.14
2019-05-13T09:12:54.796Z,99714.02
2019-05-13T09:15:25.643Z,99721.05
2019-05-13T09:17:56.289Z,99713.30
2019-05-13T09:20:27.092Z,99717.38
2019-05-13T09:22:57.664Z,99710.81
2019-05-13T09:25:28.477Z,99726.72
2019-05-13T09:28:02.429Z,99720.98
2019-05-13T09:30:31.972Z,99699.16
2019-05-13T09:33:02.545Z,99711.36
2019-05-13T09:35:34.204Z,99710.25
2019-05-13T09:38:04.889Z,99719.00
2019-05-13T09:40:35.902Z,99719.09
2019-05-13T09:43:07.543Z,99712.09
2019-05-13T09:45:38.106Z,99705.08
2019-05-13T09:48:09.152Z,99715.74
2019-05-13T09:50:42.361Z,99717.48
2019-05-13T09:53:12.241Z,99706.75
2019-05-13T09:55:44.205Z,99705.70
2019-05-13T09:58:15.494Z,99708.33
2019-05-13T10:00:46.610Z,99697.56
2019-05-13T10:03:17.157Z,99697.84
2019-05-13T10:05:47.802Z,99698.66
2019-05-13T10:08:18.461Z,99692.52
2019-05-13T10:10:48.853Z,99688.59
2019-05-13T10:13:22.680Z,99691.57
2019-05-13T10:15:51.981Z,99696.09
2019-05-13T10:18:22.676Z,99697.52
2019-05-13T10:20:58.666Z,99687.73
2019-05-13T10:23:29.254Z,99701.28
2019-05-13T10:26:03.644Z,99696.26
2019-05-13T10:28:34.547Z,99700.28
2019-05-13T10:31:05.925Z,99702.39
2019-05-13T10:33:36.940Z,99700.70
2019-05-13T10:36:08.090Z,99700.16
2019-05-13T10:38:41.305Z,99695.47
2019-05-13T10:41:12.094Z,99694.90
2019-05-13T10:43:44.510Z,99691.80
2019-05-13T10:46:15.451Z,99694.52
2019-05-13T10:48:45.699Z,99675.33
2019-05-13T10:51:16.644Z,99679.75
2019-05-13T10:53:47.194Z,99682.95
2019-05-13T10:56:17.710Z,99683.91
2019-05-13T10:58:48.600Z,99689.05
2019-05-13T11:01:22.302Z,99688.80
2019-05-13T11:03:52.573Z,99692.19
2019-05-13T11:06:23.415Z,99687.98
2019-05-13T11:08:54.149Z,99686.55
2019-05-13T11:11:24.777Z,99697.14
2019-05-13T11:13:59.368Z,99672.02
2019-05-13T11:16:27.993Z,99676.73
2019-05-13T11:18:58.781Z,99680.27
2019-05-13T11:21:31.613Z,99682.15
2019-05-13T11:24:03.281Z,99680.30
2019-05-13T11:26:36.272Z,99680.09
2019-05-13T11:29:05.557Z,99678.91
2019-05-13T11:31:35.897Z,99679.66
2019-05-13T11:34:06.230Z,99669.19
2019-05-13T11:36:36.802Z,99672.51
2019-05-13T11:39:12.701Z,99671.58
2019-05-13T11:41:42.725Z,99662.31
2019-05-13T11:44:16.779Z,99656.48
2019-05-13T11:46:45.655Z,99664.40
2019-05-13T11:49:16.236Z,99668.34
2019-05-13T11:51:47.237Z,99671.64
2019-05-13T11:54:17.474Z,99670.31
2019-05-13T11:56:50.494Z,99663.45
2019-05-13T11:59:22.062Z,99658.09
2019-05-13T12:01:53.827Z,99652.53
2019-05-13T12:04:24.381Z,99661.41
2019-05-13T12:06:55.170Z,99659.65
2019-05-13T12:09:25.415Z,99657.78
2019-05-13T12:12:02.827Z,99658.92
2019-05-13T12:14:48.445Z,99646.33
2019-05-13T12:17:05.996Z,99648.56
2019-05-13T12:19:36.814Z,99641.77
2019-05-13T12:22:07.314Z,99641.86
2019-05-13T12:24:37.994Z,99650.06
2019-05-13T12:27:09.262Z,99650.30
2019-05-13T12:29:42.995Z,99649.80
2019-05-13T12:32:14.436Z,99646.58
2019-05-13T12:34:46.034Z,99641.63
2019-05-13T12:37:16.672Z,99643.03
2019-05-13T12:39:47.393Z,99649.26
2019-05-13T12:42:22.457Z,99651.27
2019-05-13T12:45:03.767Z,99647.41
2019-05-13T12:47:24.780Z,99646.71
2019-05-13T12:49:55.674Z,99639.80
2019-05-13T12:52:26.214Z,99639.62
2019-05-13T12:54:57.191Z,99638.70
2019-05-13T12:57:27.710Z,99636.98
2019-05-13T12:59:58.528Z,99638.73
2019-05-13T13:02:32.298Z,99626.70
2019-05-13T13:05:18.548Z,99643.64
2019-05-13T13:07:41.043Z,99633.56
2019-05-13T13:10:07.105Z,99634.53
2019-05-13T13:12:37.910Z,99630.06
2019-05-13T13:15:32.926Z,99631.80
2019-05-13T13:17:42.289Z,99623.29
2019-05-13T13:20:15.208Z,99618.64
2019-05-13T13:22:46.185Z,99624.96
2019-05-13T13:25:18.135Z,99622.42
2019-05-13T13:28:08.968Z,99623.29
2019-05-13T13:30:22.314Z,99623.28
2019-05-13T13:32:54.818Z,99610.16
2019-05-13T13:35:25.488Z,99611.81
2019-05-13T13:37:56.099Z,99617.98
2019-05-13T13:40:29.652Z,99618.13
2019-05-13T13:42:58.987Z,99615.67
2019-05-13T13:45:36.757Z,99609.66
2019-05-13T13:48:08.101Z,99602.69
2019-05-13T13:50:38.837Z,99601.41
2019-05-13T13:53:14.135Z,99594.56
2019-05-13T13:55:44.973Z,99602.88
2019-05-13T13:58:15.774Z,99584.28
2019-05-13T14:01:00.846Z,99590.89
2019-05-13T14:03:19.135Z,99588.44
2019-05-13T14:05:53.710Z,99588.16
2019-05-13T14:08:22.386Z,99595.27
2019-05-13T14:10:53.086Z,99589.62
2019-05-13T14:13:23.818Z,99586.23
2019-05-13T14:15:55.835Z,99586.98
2019-05-13T14:18:27.132Z,99588.26
2019-05-13T14:20:57.716Z,99567.77
2019-05-13T14:23:28.459Z,99573.31
2019-05-13T14:25:59.279Z,99568.32
2019-05-13T14:28:32.804Z,99557.44
2019-05-13T14:31:06.549Z,99554.52
2019-05-13T14:33:37.332Z,99550.16
2019-05-13T14:36:08.702Z,99557.19
2019-05-13T14:38:39.675Z,99559.01
2019-05-13T14:41:12.325Z,99561.38
2019-05-13T14:43:42.716Z,99562.34
2019-05-13T14:46:13.852Z,99550.36
2019-05-13T14:48:44.686Z,99553.27
2019-05-13T14:51:15.519Z,99539.64
2019-05-13T14:53:46.514Z,99550.40
2019-05-13T14:56:17.225Z,99553.83
2019-05-13T14:58:47.066Z,99546.56
2019-05-13T15:01:22.283Z,99547.80
2019-05-13T15:03:48.631Z,99531.91
2019-05-13T15:06:22.106Z,99536.41
2019-05-13T15:08:52.615Z,99535.77
2019-05-13T15:11:22.119Z,99535.14
2019-05-13T15:13:52.344Z,99534.64
2019-05-13T15:16:22.645Z,99540.88
2019-05-13T15:18:52.758Z,99530.15
2019-05-13T15:21:22.085Z,99532.94
2019-05-13T15:23:51.950Z,99529.45
2019-05-13T15:26:22.203Z,99534.45
2019-05-13T15:28:53.141Z,99532.97
2019-05-13T15:31:23.733Z,99540.95
2019-05-13T15:33:54.408Z,99538.50
2019-05-13T15:36:25.287Z,99539.34
2019-05-13T15:38:56.305Z,99534.06
2019-05-13T15:41:30.158Z,99532.66
2019-05-13T15:44:03.454Z,99533.91
2019-05-13T15:46:33.611Z,99524.91
2019-05-13T15:49:04.675Z,99524.91
2019-05-13T15:51:35.288Z,99519.11
2019-05-13T15:54:06.495Z,99532.55
2019-05-13T15:56:37.324Z,99529.58
2019-05-13T15:59:12.389Z,99532.81
2019-05-13T16:01:41.911Z,99533.25
2019-05-13T16:04:13.709Z,99534.48
2019-05-13T16:06:44.390Z,99543.69
2019-05-13T16:09:15.170Z,99536.73
2019-05-13T16:11:47.494Z,99528.86
2019-05-13T16:14:18.380Z,99533.08
2019-05-13T16:16:49.204Z,99532.62
2019-05-13T16:19:22.028Z,99531.53
2019-05-13T16:21:54.091Z,99532.35
2019-05-13T16:24:24.232Z,99517.21
2019-05-13T16:26:54.473Z,99513.61
2019-05-13T16:29:25.140Z,99518.11
2019-05-13T16:31:55.488Z,99520.41
2019-05-13T16:34:26.071Z,99523.56
2019-05-13T16:36:56.658Z,99529.73
2019-05-13T16:39:27.545Z,99533.56
2019-05-13T16:41:58.146Z,99521.37
2019-05-13T16:44:28.487Z,99517.99
2019-05-13T16:47:01.312Z,99530.25
2019-05-13T16:49:33.201Z,99529.77
2019-05-13T16:52:04.028Z,99537.59
2019-05-13T16:54:34.395Z,99531.19
2019-05-13T16:57:04.766Z,99536.03
2019-05-13T16:59:36.646Z,99535.70
2019-05-13T17:02:12.303Z,99536.63
2019-05-13T17:04:41.993Z,99535.27
2019-05-13T17:07:13.242Z,99539.92
2019-05-13T17:09:43.407Z,99531.30
2019-05-13T17:12:15.916Z,99535.92
2019-05-13T17:14:45.702Z,99531.04
2019-05-13T17:17:15.970Z,99538.58
2019-05-13T17:19:46.156Z,99529.09
2019-05-13T17:22:16.503Z,99535.14
2019-05-13T17:24:47.161Z,99531.65
2019-05-13T17:27:17.717Z,99538.59
2019-05-13T17:29:48.189Z,99531.33
2019-05-13T17:32:18.709Z,99537.80
2019-05-13T17:34:51.415Z,99537.73
2019-05-13T17:37:22.312Z,99548.46
2019-05-13T17:39:52.849Z,99546.93
2019-05-13T17:42:23.291Z,99547.47
2019-05-13T17:44:53.554Z,99542.57
2019-05-13T17:47:24.013Z,99551.08
2019-05-13T17:49:54.332Z,99547.68
2019-05-13T17:52:30.435Z,99539.59
2019-05-13T17:55:01.237Z,99546.45
2019-05-13T17:57:32.183Z,99549.78
2019-05-13T18:00:03.391Z,99552.58
2019-05-13T18:02:33.877Z,99550.94
2019-05-13T18:05:06.019Z,99548.91
2019-05-13T18:07:36.468Z,99545.12
2019-05-13T18:10:07.642Z,99547.14
2019-05-13T18:12:38.539Z,99546.30
2019-05-13T18:15:11.433Z,99546.36
2019-05-13T18:17:41.924Z,99540.70
2019-05-13T18:20:12.386Z,99548.86
2019-05-13T18:22:42.743Z,99551.34
2019-05-13T18:25:13.627Z,99548.97
2019-05-13T18:27:44.041Z,99542.99
2019-05-13T18:30:14.681Z,99543.32
2019-05-13T18:32:45.323Z,99536.36
2019-05-13T18:35:16.344Z,99534.72
2019-05-13T18:37:47.146Z,99538.55
2019-05-13T18:40:18.254Z,99534.53
2019-05-13T18:42:51.291Z,99538.91
2019-05-13T18:45:22.060Z,99538.08
2019-05-13T18:47:52.877Z,99540.31
2019-05-13T18:50:23.719Z,99535.19
2019-05-13T18:52:54.696Z,99542.52
2019-05-13T18:55:25.408Z,99543.91
2019-05-13T18:57:56.006Z,99550.16
2019-05-13T19:00:27.110Z,99556.69
2019-05-13T19:02:57.903Z,99543.69
2019-05-13T19:05:31.701Z,99552.92
2019-05-13T19:08:02.578Z,99558.08
2019-05-13T19:10:34.395Z,99554.02
2019-05-13T19:13:05.010Z,99554.52
2019-05-13T19:15:36.096Z,99554.75
2019-05-13T19:18:06.518Z,99557.72
2019-05-13T19:20:37.311Z,99556.08
2019-05-13T19:23:07.828Z,99559.59
2019-05-13T19:25:42.075Z,99556.88
2019-05-13T19:28:11.908Z,99562.23
2019-05-13T19:30:42.957Z,99571.12
2019-05-13T19:33:14.610Z,99569.20
2019-05-13T19:35:45.651Z,99573.48
2019-05-13T19:38:16.276Z,99571.54
2019-05-13T19:40:47.013Z,99570.71
2019-05-13T19:43:17.858Z,99573.95
2019-05-13T19:45:48.813Z,99574.14
2019-05-13T19:48:21.629Z,99574.33
2019-05-13T19:50:52.226Z,99571.09
2019-05-13T19:53:24.257Z,99574.48
2019-05-13T19:55:55.015Z,99566.02
2019-05-13T19:58:25.836Z,99580.86
2019-05-13T20:00:56.222Z,99568.45
2019-05-13T20:03:26.787Z,99572.18
2019-05-13T20:05:58.877Z,99569.34
2019-05-13T20:08:31.841Z,99567.10
2019-05-13T20:11:02.882Z,99568.96
2019-05-13T20:13:33.653Z,99571.37
2019-05-13T20:16:04.178Z,99576.20
2019-05-13T20:18:36.323Z,99571.53
2019-05-13T20:21:10.336Z,99575.55
2019-05-13T20:23:41.421Z,99573.91
2019-05-13T20:26:12.172Z,99572.91
2019-05-13T20:28:42.973Z,99567.23
2019-05-13T20:31:13.497Z,99562.56
2019-05-13T20:33:44.467Z,99567.44
2019-05-13T20:36:14.934Z,99573.17
2019-05-13T20:38:46.066Z,99571.42
2019-05-13T20:41:16.883Z,99578.08
2019-05-13T20:43:47.195Z,99576.46
2019-05-13T20:46:17.686Z,99581.09
2019-05-13T20:48:48.584Z,99578.50
2019-05-13T20:51:19.052Z,99584.61
2019-05-13T20:53:51.833Z,99585.05
2019-05-13T20:56:21.939Z,99591.33
2019-05-13T20:58:55.848Z,99584.47
2019-05-13T21:01:27.701Z,99589.26
2019-05-13T21:03:58.432Z,99588.86
2019-05-13T21:06:31.473Z,99589.17
2019-05-13T21:09:02.261Z,99592.59
2019-05-13T21:11:34.052Z,99587.69
2019-05-13T21:14:04.706Z,99585.94
2019-05-13T21:16:35.938Z,99584.39
2019-05-13T21:19:06.501Z,99586.89
2019-05-13T21:21:36.911Z,99579.02
2019-05-13T21:24:07.077Z,99573.84
2019-05-13T21:26:37.634Z,99572.13
2019-05-13T21:29:08.135Z,99570.37
2019-05-13T21:31:41.446Z,99570.17
2019-05-13T21:34:12.066Z,99568.20
2019-05-13T21:36:42.838Z,99566.48
2019-05-13T21:39:13.853Z,99568.30
2019-05-13T21:41:44.427Z,99573.61
2019-05-13T21:44:14.940Z,99570.23
2019-05-13T21:46:45.557Z,99570.44
2019-05-13T21:49:17.480Z,99567.84
2019-05-13T21:51:52.017Z,99564.46
2019-05-13T21:54:22.086Z,99575.88
2019-05-13T21:56:52.432Z,99575.80
2019-05-13T21:59:23.380Z,99573.77
2019-05-13T22:01:54.047Z,99571.55
2019-05-13T22:04:24.534Z,99572.76
2019-05-13T22:06:54.804Z,99567.94
2019-05-13T22:09:25.331Z,99563.58
2019-05-13T22:11:55.827Z,99570.02
2019-05-13T22:14:26.290Z,99568.77
2019-05-13T22:16:56.764Z,99566.95
2019-05-13T22:19:28.081Z,99574.54
2019-05-13T22:21:58.257Z,99577.16
2019-05-13T22:24:28.483Z,99565.81
2019-05-13T22:26:58.721Z,99570.36
2019-05-13T22:29:29.124Z,99560.95
2019-05-13T22:32:01.791Z,99560.50
2019-05-13T22:34:32.130Z,99561.53
2019-05-13T22:37:02.753Z,99551.83
2019-05-13T22:39:34.874Z,99562.81
2019-05-13T22:42:05.480Z,99555.62
2019-05-13T22:44:35.750Z,99555.38
2019-05-13T22:47:06.125Z,99547.16
2019-05-13T22:49:36.287Z,99543.49
2019-05-13T22:52:06.860Z,99546.25
2019-05-13T22:54:37.127Z,99552.28
2019-05-13T22:57:08.390Z,99550.48
2019-05-13T22:59:41.612Z,99542.75
2019-05-13T23:02:11.836Z,99540.43
2019-05-13T23:04:42.161Z,99543.34
2019-05-13T23:07:12.305Z,99537.23
2019-05-13T23:09:42.522Z,99540.27
2019-05-13T23:12:12.745Z,99538.39
2019-05-13T23:14:43.535Z,99533.95
2019-05-13T23:17:13.882Z,99536.40
2019-05-13T23:19:46.081Z,99537.89
2019-05-13T23:22:16.305Z,99530.61
2019-05-13T23:24:46.719Z,99531.98
2019-05-13T23:27:16.851Z,99529.85
2019-05-13T23:29:47.026Z,99524.84
2019-05-13T23:32:17.251Z,99523.09
2019-05-13T23:34:47.408Z,99521.66
2019-05-13T23:37:17.567Z,99519.09
2019-05-13T23:39:47.824Z,99519.19
2019-05-13T23:42:17.991Z,99512.13
2019-05-13T23:44:48.129Z,99511.31
2019-05-13T23:47:18.266Z,99504.02
2019-05-13T23:49:48.512Z,99502.50
2019-05-13T23:52:18.923Z,99500.60
2019-05-13T23:54:51.492Z,99496.36
2019-05-13T23:57:22.158Z,99497.39
2019-05-13T23:59:53.110Z,99496.73
